メインページ
METAR-TAF:

METAR-TAF

空港 :

Otis Air National Guard Base

ファルマス, マサチューセッツ州, アメリカ合衆国

緯度: 41-39N, 経度: 070-31W, 海抜: 40m

現時点の気象観測

当レポートは59分前の23:56(UTC)に作成
北東の風 8kt
気温 17°C
湿度 82%
気圧 1024 hPa
視程: 16.1km
晴天

METAR: KFMH 242356Z 05008KT 10SM CLR 17/14 A3023

時間: 20:55 (00:55 UTC)

予報

当レポートは1時間34分前の23:21(UTC)に作成
予報は25日の 00時(UTC)から 25日の 24時(UTC)まで有効
北東の風 10kt
視程: 10km
高度2500ftの雲は散在している
25日の 00時(UTC)から 25日の 02時(UTC)まで一時的に
高度2500ftの千切れ雲あり
25日の 1000時(UTC)から
東/北東の風 6kt
視程: 10km
高度3500ftの千切れ雲あり
25日の 1200時(UTC)から
東/北東の風 11kt、最大20ktの突風を伴う
視程: 10km
高度2000ftの千切れ雲あり
近辺でにわか雨
25日の 2200時(UTC)から
北東の風 11kt、最大18ktの突風を伴う
視程: 10km
高度1500ftの千切れ雲あり

TAF: KFMH 242321Z 2500/2524 05010KT P6SM SCT025 TEMPO 2500/2502 BKN025 FM251000 06006KT P6SM BKN035 FM251200 06011G20KT P6SM VCSH BKN020 FM252200 05011G18KT P6SM BKN015

4,000以上の空港の気象観測と天気予報(METAR報とTAF報)

利用可能な観測所は地図上に黄色い丸と赤い丸で示す。

丸の上にカーソルを重ねると観測所名を参照できる。

次にクリックすると気象観測と天気予報を参照できる。

マップの切り替え:黒色「×」印の緑ボタンをクリックして拡大、「-」印の緑ボタンをクリックして縮小、緑色の三角印をクリックして隣りの地図に切り替え


METAR-TAF: